sensor_id;sensor_type;location;lat;lon;timestamp;P1;durP1;ratioP1;P2;durP2;ratioP2
22289;SDS011;11313;50.116;8.424;2022-09-20T04:54:40;4.85;;;1.20;;
22289;SDS011;11313;50.116;8.424;2022-09-20T05:00:23;1.88;;;1.02;;
22289;SDS011;11313;50.116;8.424;2022-09-20T05:14:36;1.88;;;0.98;;
22289;SDS011;11313;50.116;8.424;2022-09-20T05:17:14;1.30;;;1.08;;
22289;SDS011;11313;50.116;8.424;2022-09-20T05:22:41;2.00;;;1.00;;
22289;SDS011;11313;50.116;8.424;2022-09-20T05:28:25;3.10;;;1.00;;
22289;SDS011;11313;50.116;8.424;2022-09-20T05:31:13;4.35;;;1.20;;
22289;SDS011;11313;50.116;8.424;2022-09-20T05:39:23;2.10;;;1.23;;
22289;SDS011;11313;50.116;8.424;2022-09-20T05:42:14;1.75;;;1.00;;
22289;SDS011;11313;50.116;8.424;2022-09-20T05:44:58;1.00;;;0.90;;
22289;SDS011;11313;50.116;8.424;2022-09-20T05:59:51;2.22;;;0.93;;
22289;SDS011;11313;50.116;8.424;2022-09-20T06:05:14;2.28;;;1.05;;
22289;SDS011;11313;50.116;8.424;2022-09-20T06:23:08;4.57;;;1.08;;
22289;SDS011;11313;50.116;8.424;2022-09-20T06:28:27;5.78;;;1.60;;
22289;SDS011;11313;50.116;8.424;2022-09-20T06:39:05;7.93;;;1.73;;
22289;SDS011;11313;50.116;8.424;2022-09-20T06:41:51;9.45;;;1.75;;
22289;SDS011;11313;50.116;8.424;2022-09-20T06:44:17;5.88;;;1.50;;
22289;SDS011;11313;50.116;8.424;2022-09-20T06:46:43;7.40;;;1.38;;
22289;SDS011;11313;50.116;8.424;2022-09-20T06:49:08;3.63;;;1.52;;
22289;SDS011;11313;50.116;8.424;2022-09-20T06:51:35;7.35;;;1.42;;
22289;SDS011;11313;50.116;8.424;2022-09-20T06:54:02;4.40;;;1.45;;
22289;SDS011;11313;50.116;8.424;2022-09-20T06:56:29;4.78;;;1.60;;
22289;SDS011;11313;50.116;8.424;2022-09-20T07:01:25;6.63;;;1.60;;
22289;SDS011;11313;50.116;8.424;2022-09-20T07:03:50;4.25;;;1.30;;
22289;SDS011;11313;50.116;8.424;2022-09-20T07:06:16;9.30;;;2.22;;
22289;SDS011;11313;50.116;8.424;2022-09-20T07:08:43;7.40;;;1.70;;
22289;SDS011;11313;50.116;8.424;2022-09-20T07:11:13;7.07;;;1.60;;
22289;SDS011;11313;50.116;8.424;2022-09-20T07:13:41;3.70;;;1.23;;
22289;SDS011;11313;50.116;8.424;2022-09-20T07:18:41;5.47;;;1.10;;
22289;SDS011;11313;50.116;8.424;2022-09-20T07:24:16;4.50;;;1.58;;
22289;SDS011;11313;50.116;8.424;2022-09-20T07:27:01;3.30;;;1.27;;
22289;SDS011;11313;50.116;8.424;2022-09-20T07:29:29;5.97;;;1.35;;
22289;SDS011;11313;50.116;8.424;2022-09-20T07:31:55;3.70;;;1.50;;
22289;SDS011;11313;50.116;8.424;2022-09-20T07:34:21;6.45;;;1.70;;
22289;SDS011;11313;50.116;8.424;2022-09-20T07:36:47;9.75;;;1.98;;
22289;SDS011;11313;50.116;8.424;2022-09-20T07:39:14;6.18;;;1.50;;
22289;SDS011;11313;50.116;8.424;2022-09-20T07:41:40;7.65;;;1.92;;
22289;SDS011;11313;50.116;8.424;2022-09-20T07:44:05;6.18;;;2.03;;
22289;SDS011;11313;50.116;8.424;2022-09-20T07:46:58;7.22;;;2.17;;
22289;SDS011;11313;50.116;8.424;2022-09-20T07:49:24;5.90;;;1.48;;
22289;SDS011;11313;50.116;8.424;2022-09-20T07:51:52;6.15;;;1.70;;
22289;SDS011;11313;50.116;8.424;2022-09-20T07:54:18;6.03;;;2.03;;
22289;SDS011;11313;50.116;8.424;2022-09-20T07:56:45;5.28;;;1.30;;
22289;SDS011;11313;50.116;8.424;2022-09-20T07:59:11;3.65;;;1.50;;
22289;SDS011;11313;50.116;8.424;2022-09-20T08:01:37;5.95;;;1.85;;
22289;SDS011;11313;50.116;8.424;2022-09-20T08:04:04;5.72;;;2.15;;
22289;SDS011;11313;50.116;8.424;2022-09-20T08:06:58;6.32;;;1.48;;
22289;SDS011;11313;50.116;8.424;2022-09-20T08:09:25;6.18;;;1.38;;
22289;SDS011;11313;50.116;8.424;2022-09-20T08:11:50;3.40;;;1.67;;
22289;SDS011;11313;50.116;8.424;2022-09-20T08:14:17;4.18;;;1.50;;
22289;SDS011;11313;50.116;8.424;2022-09-20T08:17:04;6.93;;;1.80;;
22289;SDS011;11313;50.116;8.424;2022-09-20T08:19:28;3.83;;;1.55;;
22289;SDS011;11313;50.116;8.424;2022-09-20T08:21:54;5.57;;;1.58;;
22289;SDS011;11313;50.116;8.424;2022-09-20T08:24:20;4.90;;;1.50;;
22289;SDS011;11313;50.116;8.424;2022-09-20T08:54:15;4.57;;;1.60;;
22289;SDS011;11313;50.116;8.424;2022-09-20T08:59:54;3.63;;;1.35;;
22289;SDS011;11313;50.116;8.424;2022-09-20T09:02:20;2.22;;;1.20;;
22289;SDS011;11313;50.116;8.424;2022-09-20T09:04:47;4.05;;;1.50;;
22289;SDS011;11313;50.116;8.424;2022-09-20T09:07:14;3.58;;;1.48;;
22289;SDS011;11313;50.116;8.424;2022-09-20T09:10:21;3.20;;;1.90;;
22289;SDS011;11313;50.116;8.424;2022-09-20T09:16:20;3.88;;;1.40;;
22289;SDS011;11313;50.116;8.424;2022-09-20T09:19:29;3.55;;;1.20;;
22289;SDS011;11313;50.116;8.424;2022-09-20T09:22:03;2.80;;;1.27;;
22289;SDS011;11313;50.116;8.424;2022-09-20T09:24:37;2.33;;;1.20;;
22289;SDS011;11313;50.116;8.424;2022-09-20T09:27:53;2.38;;;1.23;;
22289;SDS011;11313;50.116;8.424;2022-09-20T09:37:27;2.95;;;1.30;;
22289;SDS011;11313;50.116;8.424;2022-09-20T09:43:34;2.38;;;1.42;;
22289;SDS011;11313;50.116;8.424;2022-09-20T09:46:23;4.93;;;1.30;;
22289;SDS011;11313;50.116;8.424;2022-09-20T10:01:53;3.28;;;1.10;;
22289;SDS011;11313;50.116;8.424;2022-09-20T10:05:02;2.40;;;1.20;;
22289;SDS011;11313;50.116;8.424;2022-09-20T10:07:46;6.13;;;1.70;;
22289;SDS011;11313;50.116;8.424;2022-09-20T10:10:31;2.97;;;1.50;;
22289;SDS011;11313;50.116;8.424;2022-09-20T10:13:46;4.57;;;1.98;;
22289;SDS011;11313;50.116;8.424;2022-09-20T10:21:33;4.63;;;2.00;;
22289;SDS011;11313;50.116;8.424;2022-09-20T10:36:59;5.30;;;2.22;;
22289;SDS011;11313;50.116;8.424;2022-09-20T10:39:53;4.03;;;2.10;;
22289;SDS011;11313;50.116;8.424;2022-09-20T10:55:45;6.75;;;2.50;;
22289;SDS011;11313;50.116;8.424;2022-09-20T11:04:12;7.53;;;2.80;;
22289;SDS011;11313;50.116;8.424;2022-09-20T11:10:01;10.68;;;2.70;;
22289;SDS011;11313;50.116;8.424;2022-09-20T11:12:38;5.72;;;2.75;;
22289;SDS011;11313;50.116;8.424;2022-09-20T11:41:14;4.10;;;1.98;;
22289;SDS011;11313;50.116;8.424;2022-09-20T11:44:04;6.35;;;2.38;;
22289;SDS011;11313;50.116;8.424;2022-09-20T11:56:50;4.22;;;2.00;;
22289;SDS011;11313;50.116;8.424;2022-09-20T12:02:32;3.13;;;1.88;;
22289;SDS011;11313;50.116;8.424;2022-09-20T12:05:22;5.65;;;2.08;;
22289;SDS011;11313;50.116;8.424;2022-09-20T12:11:13;7.28;;;1.98;;
22289;SDS011;11313;50.116;8.424;2022-09-20T12:13:40;6.05;;;2.10;;
22289;SDS011;11313;50.116;8.424;2022-09-20T12:16:40;3.13;;;1.95;;
22289;SDS011;11313;50.116;8.424;2022-09-20T12:19:11;3.58;;;1.98;;
22289;SDS011;11313;50.116;8.424;2022-09-20T12:22:14;4.75;;;2.00;;
22289;SDS011;11313;50.116;8.424;2022-09-20T12:24:38;5.90;;;1.90;;
22289;SDS011;11313;50.116;8.424;2022-09-20T12:30:05;6.40;;;1.90;;
22289;SDS011;11313;50.116;8.424;2022-09-20T12:32:50;2.47;;;1.60;;
22289;SDS011;11313;50.116;8.424;2022-09-20T14:01:04;2.45;;;1.65;;
22289;SDS011;11313;50.116;8.424;2022-09-20T14:14:17;4.38;;;2.10;;
22289;SDS011;11313;50.116;8.424;2022-09-20T14:17:47;2.15;;;1.58;;
22289;SDS011;11313;50.116;8.424;2022-09-20T14:20:52;5.43;;;1.67;;
22289;SDS011;11313;50.116;8.424;2022-09-20T14:23:25;2.85;;;1.52;;
22289;SDS011;11313;50.116;8.424;2022-09-20T14:28:40;5.20;;;1.63;;
22289;SDS011;11313;50.116;8.424;2022-09-20T14:31:25;3.90;;;1.70;;
22289;SDS011;11313;50.116;8.424;2022-09-20T14:33:57;3.28;;;1.70;;
22289;SDS011;11313;50.116;8.424;2022-09-20T14:36:26;2.58;;;1.60;;
22289;SDS011;11313;50.116;8.424;2022-09-20T14:38:57;2.40;;;1.40;;
22289;SDS011;11313;50.116;8.424;2022-09-20T14:41:33;3.90;;;1.45;;
22289;SDS011;11313;50.116;8.424;2022-09-20T14:44:02;3.10;;;1.65;;
22289;SDS011;11313;50.116;8.424;2022-09-20T14:46:31;3.13;;;1.65;;
22289;SDS011;11313;50.116;8.424;2022-09-20T14:54:38;3.20;;;1.60;;
22289;SDS011;11313;50.116;8.424;2022-09-20T14:57:09;3.97;;;1.45;;
22289;SDS011;11313;50.116;8.424;2022-09-20T14:59:37;3.53;;;1.60;;
22289;SDS011;11313;50.116;8.424;2022-09-20T15:23:35;2.30;;;1.55;;
22289;SDS011;11313;50.116;8.424;2022-09-20T15:26:02;3.70;;;1.30;;
22289;SDS011;11313;50.116;8.424;2022-09-20T18:51:57;4.55;;;1.50;;
22289;SDS011;11313;50.116;8.424;2022-09-20T18:54:22;5.20;;;1.73;;
22289;SDS011;11313;50.116;8.424;2022-09-20T18:56:48;3.80;;;1.60;;
22289;SDS011;11313;50.116;8.424;2022-09-20T18:59:21;3.60;;;1.60;;
22289;SDS011;11313;50.116;8.424;2022-09-20T19:10:18;5.18;;;1.70;;
22289;SDS011;11313;50.116;8.424;2022-09-20T19:15:33;4.45;;;1.42;;
22289;SDS011;11313;50.116;8.424;2022-09-20T19:21:09;4.75;;;1.83;;
22289;SDS011;11313;50.116;8.424;2022-09-20T19:26:30;3.45;;;1.35;;
22289;SDS011;11313;50.116;8.424;2022-09-20T19:29:02;4.88;;;1.65;;
22289;SDS011;11313;50.116;8.424;2022-09-20T19:31:35;4.65;;;1.67;;
22289;SDS011;11313;50.116;8.424;2022-09-20T19:34:03;4.30;;;1.40;;
22289;SDS011;11313;50.116;8.424;2022-09-20T19:47:52;5.30;;;1.52;;
22289;SDS011;11313;50.116;8.424;2022-09-20T19:50:34;5.57;;;1.50;;
22289;SDS011;11313;50.116;8.424;2022-09-20T19:53:15;4.13;;;1.63;;
22289;SDS011;11313;50.116;8.424;2022-09-20T19:55:44;2.90;;;1.33;;
22289;SDS011;11313;50.116;8.424;2022-09-20T19:58:12;4.47;;;1.40;;
22289;SDS011;11313;50.116;8.424;2022-09-20T20:00:38;4.38;;;1.80;;
22289;SDS011;11313;50.116;8.424;2022-09-20T20:03:09;4.45;;;1.30;;
22289;SDS011;11313;50.116;8.424;2022-09-20T20:05:36;5.25;;;1.88;;
22289;SDS011;11313;50.116;8.424;2022-09-20T20:11:31;4.30;;;1.60;;
22289;SDS011;11313;50.116;8.424;2022-09-20T20:25:26;2.75;;;1.30;;
22289;SDS011;11313;50.116;8.424;2022-09-20T20:28:11;4.20;;;1.40;;
22289;SDS011;11313;50.116;8.424;2022-09-20T20:30:37;3.83;;;1.48;;
22289;SDS011;11313;50.116;8.424;2022-09-20T20:33:03;3.75;;;1.50;;
22289;SDS011;11313;50.116;8.424;2022-09-20T20:35:30;2.47;;;1.25;;
22289;SDS011;11313;50.116;8.424;2022-09-20T20:37:56;3.03;;;1.20;;
22289;SDS011;11313;50.116;8.424;2022-09-20T20:40:22;4.72;;;1.42;;
22289;SDS011;11313;50.116;8.424;2022-09-20T20:42:56;3.88;;;1.50;;
22289;SDS011;11313;50.116;8.424;2022-09-20T20:45:26;2.08;;;1.20;;
22289;SDS011;11313;50.116;8.424;2022-09-20T20:47:58;4.40;;;1.73;;
22289;SDS011;11313;50.116;8.424;2022-09-20T20:50:26;3.03;;;1.33;;
22289;SDS011;11313;50.116;8.424;2022-09-20T20:52:53;3.60;;;1.27;;
22289;SDS011;11313;50.116;8.424;2022-09-20T20:55:20;2.72;;;1.52;;
22289;SDS011;11313;50.116;8.424;2022-09-20T20:57:52;3.30;;;1.48;;
22289;SDS011;11313;50.116;8.424;2022-09-20T21:00:21;4.30;;;1.75;;
22289;SDS011;11313;50.116;8.424;2022-09-20T21:02:57;4.05;;;1.42;;
22289;SDS011;11313;50.116;8.424;2022-09-20T21:05:24;2.38;;;1.20;;
22289;SDS011;11313;50.116;8.424;2022-09-20T21:07:51;2.47;;;1.40;;
22289;SDS011;11313;50.116;8.424;2022-09-20T21:10:18;3.35;;;1.33;;
22289;SDS011;11313;50.116;8.424;2022-09-20T21:12:44;2.15;;;1.20;;
22289;SDS011;11313;50.116;8.424;2022-09-20T21:15:09;3.22;;;1.58;;
22289;SDS011;11313;50.116;8.424;2022-09-20T21:17:36;3.65;;;1.55;;
22289;SDS011;11313;50.116;8.424;2022-09-20T21:20:02;3.60;;;1.40;;
22289;SDS011;11313;50.116;8.424;2022-09-20T21:22:28;4.13;;;1.40;;
22289;SDS011;11313;50.116;8.424;2022-09-20T21:24:54;2.83;;;1.55;;
22289;SDS011;11313;50.116;8.424;2022-09-20T21:27:19;2.70;;;1.30;;
22289;SDS011;11313;50.116;8.424;2022-09-20T21:29:47;2.33;;;1.17;;
22289;SDS011;11313;50.116;8.424;2022-09-20T21:32:13;3.72;;;1.30;;
22289;SDS011;11313;50.116;8.424;2022-09-20T21:34:38;3.78;;;1.50;;
22289;SDS011;11313;50.116;8.424;2022-09-20T21:37:04;3.60;;;1.40;;
22289;SDS011;11313;50.116;8.424;2022-09-20T21:39:30;2.88;;;1.42;;
22289;SDS011;11313;50.116;8.424;2022-09-20T21:41:55;3.03;;;1.40;;
22289;SDS011;11313;50.116;8.424;2022-09-20T21:44:21;3.15;;;1.40;;
22289;SDS011;11313;50.116;8.424;2022-09-20T21:46:47;3.70;;;1.65;;
22289;SDS011;11313;50.116;8.424;2022-09-20T21:49:13;2.47;;;1.33;;
22289;SDS011;11313;50.116;8.424;2022-09-20T21:51:39;4.03;;;1.48;;
22289;SDS011;11313;50.116;8.424;2022-09-20T21:54:06;2.78;;;1.35;;
22289;SDS011;11313;50.116;8.424;2022-09-20T21:56:33;3.13;;;1.27;;
22289;SDS011;11313;50.116;8.424;2022-09-20T21:59:00;2.38;;;1.27;;
22289;SDS011;11313;50.116;8.424;2022-09-20T22:01:29;2.95;;;1.40;;
22289;SDS011;11313;50.116;8.424;2022-09-20T22:03:58;3.75;;;1.15;;
22289;SDS011;11313;50.116;8.424;2022-09-20T22:06:29;2.45;;;1.42;;
22289;SDS011;11313;50.116;8.424;2022-09-20T22:08:57;2.63;;;1.30;;
22289;SDS011;11313;50.116;8.424;2022-09-20T22:11:29;2.90;;;1.30;;
22289;SDS011;11313;50.116;8.424;2022-09-20T22:13:56;2.15;;;1.30;;
22289;SDS011;11313;50.116;8.424;2022-09-20T22:16:32;3.33;;;1.30;;
22289;SDS011;11313;50.116;8.424;2022-09-20T22:18:59;2.97;;;1.20;;
22289;SDS011;11313;50.116;8.424;2022-09-20T22:21:26;3.28;;;1.30;;
22289;SDS011;11313;50.116;8.424;2022-09-20T22:23:57;3.15;;;1.42;;
22289;SDS011;11313;50.116;8.424;2022-09-20T22:26:25;2.80;;;1.40;;
22289;SDS011;11313;50.116;8.424;2022-09-20T22:28:56;2.65;;;1.50;;
22289;SDS011;11313;50.116;8.424;2022-09-20T22:31:23;3.55;;;1.20;;
22289;SDS011;11313;50.116;8.424;2022-09-20T22:33:51;2.85;;;1.48;;
22289;SDS011;11313;50.116;8.424;2022-09-20T22:36:19;3.15;;;1.30;;
22289;SDS011;11313;50.116;8.424;2022-09-20T22:38:46;2.20;;;1.30;;
22289;SDS011;11313;50.116;8.424;2022-09-20T22:41:13;2.05;;;1.23;;
22289;SDS011;11313;50.116;8.424;2022-09-20T22:43:39;1.67;;;1.10;;
22289;SDS011;11313;50.116;8.424;2022-09-20T22:46:17;2.17;;;1.27;;
22289;SDS011;11313;50.116;8.424;2022-09-20T22:48:45;2.25;;;1.15;;
22289;SDS011;11313;50.116;8.424;2022-09-20T22:51:11;4.22;;;1.33;;
22289;SDS011;11313;50.116;8.424;2022-09-20T22:53:44;2.75;;;1.20;;
22289;SDS011;11313;50.116;8.424;2022-09-20T22:56:21;4.05;;;1.23;;
22289;SDS011;11313;50.116;8.424;2022-09-20T22:58:53;2.15;;;1.23;;
22289;SDS011;11313;50.116;8.424;2022-09-20T23:01:24;2.40;;;1.20;;
22289;SDS011;11313;50.116;8.424;2022-09-20T23:03:56;1.83;;;1.40;;
22289;SDS011;11313;50.116;8.424;2022-09-20T23:06:25;1.50;;;1.00;;
22289;SDS011;11313;50.116;8.424;2022-09-20T23:08:56;2.85;;;1.17;;
22289;SDS011;11313;50.116;8.424;2022-09-20T23:11:26;3.03;;;1.45;;
22289;SDS011;11313;50.116;8.424;2022-09-20T23:13:53;2.75;;;1.30;;
22289;SDS011;11313;50.116;8.424;2022-09-20T23:16:24;2.97;;;1.33;;
22289;SDS011;11313;50.116;8.424;2022-09-20T23:18:54;2.15;;;1.27;;
22289;SDS011;11313;50.116;8.424;2022-09-20T23:21:21;1.75;;;1.00;;
22289;SDS011;11313;50.116;8.424;2022-09-20T23:23:50;2.97;;;1.40;;
22289;SDS011;11313;50.116;8.424;2022-09-20T23:26:27;1.75;;;1.05;;
22289;SDS011;11313;50.116;8.424;2022-09-20T23:28:58;3.17;;;1.40;;
22289;SDS011;11313;50.116;8.424;2022-09-20T23:31:25;1.58;;;1.15;;
22289;SDS011;11313;50.116;8.424;2022-09-20T23:33:56;1.77;;;1.30;;
22289;SDS011;11313;50.116;8.424;2022-09-20T23:36:23;2.08;;;1.10;;
22289;SDS011;11313;50.116;8.424;2022-09-20T23:38:51;1.73;;;1.20;;
22289;SDS011;11313;50.116;8.424;2022-09-20T23:41:17;2.03;;;1.20;;
22289;SDS011;11313;50.116;8.424;2022-09-20T23:43:44;2.65;;;1.17;;
22289;SDS011;11313;50.116;8.424;2022-09-20T23:46:11;3.22;;;1.73;;
22289;SDS011;11313;50.116;8.424;2022-09-20T23:48:38;2.22;;;1.30;;
22289;SDS011;11313;50.116;8.424;2022-09-20T23:51:07;2.10;;;1.30;;
22289;SDS011;11313;50.116;8.424;2022-09-20T23:53:35;3.22;;;1.40;;
22289;SDS011;11313;50.116;8.424;2022-09-20T23:56:01;2.17;;;1.20;;
22289;SDS011;11313;50.116;8.424;2022-09-20T23:58:27;2.45;;;1.20;;
